Weather at Thessaloniki Macedonia International Airport

Public forecast

Using degrees Celsius for public forecast. Weather courtesy of forecast.io.

Current aviation weather report (METAR) for Thessaloniki Macedonia International Airport

Retrieved 2020/11/24 06:20 UTC (0 seconds ago):

LGTS 240620Z 12005KT 9999 FEW020 03/01 Q1024 NOSIG

Aviation forecast (TAF) for Thessaloniki Macedonia International Airport

Retrieved 2020/11/24 06:12 UTC (0 seconds ago):

TAF LGTS 240500Z 2406/2506 35010KT 9999 FEW025 BECMG 2414/2416 SCT030